Time;durP1;ratioP1;P1;durP2;ratioP2;P2;SDS_P1;SDS_P2;PMS_P1;PMS_P2;Temp;Humidity;BMP_temperature;BMP_pressure;BME280_temperature;BME280_humidity;BME280_pressure;Samples;Min_cycle;Max_cycle;Signal;HPM_P1;HPM_P2
2022/10/19 00:01:20;;;;;;;7.80;4.50;;;13.40;99.90;;;;;;5027616;28;20849;-72
2022/10/19 00:03:52;;;;;;;4.78;4.28;;;13.40;99.90;;;;;;5012097;28;20424;-73
2022/10/19 00:06:24;;;;;;;6.03;4.60;;;13.40;99.90;;;;;;5007791;28;20404;-72
2022/10/19 00:09:10;;;;;;;4.70;4.30;;;13.40;99.90;;;;;;5006586;28;20428;-73
2022/10/19 00:11:38;;;;;;;6.30;4.38;;;13.40;99.90;;;;;;5007880;28;20849;-73
2022/10/19 00:14:05;;;;;;;5.60;4.40;;;13.40;99.90;;;;;;5023226;28;20456;-73
2022/10/19 00:16:34;;;;;;;5.55;4.30;;;13.40;99.90;;;;;;5027110;28;20403;-73
2022/10/19 00:19:03;;;;;;;7.70;4.00;;;13.40;99.90;;;;;;5027466;28;20396;-73
2022/10/19 00:21:28;;;;;;;6.70;4.32;;;13.40;99.90;;;;;;5027703;27;20401;-73
2022/10/19 00:23:54;;;;;;;4.70;4.10;;;13.50;99.90;;;;;;5007538;28;20754;-73
2022/10/19 00:26:20;;;;;;;5.47;4.40;;;13.50;99.90;;;;;;5007351;28;20415;-73
2022/10/19 00:28:45;;;;;;;5.13;3.80;;;13.50;99.90;;;;;;5007702;28;20385;-73
2022/10/19 00:31:14;;;;;;;6.20;3.97;;;13.60;99.90;;;;;;5018619;28;20395;-73
2022/10/19 00:33:40;;;;;;;5.50;4.10;;;13.60;99.90;;;;;;5027082;28;20463;-73
2022/10/19 00:36:17;;;;;;;7.57;3.90;;;13.60;99.90;;;;;;5027230;28;21132;-72
2022/10/19 00:38:43;;;;;;;4.70;4.25;;;13.60;99.90;;;;;;5026139;28;20423;-73
2022/10/19 00:41:08;;;;;;;7.88;3.90;;;13.70;99.90;;;;;;5027463;28;20391;-73
2022/10/19 00:44:00;;;;;;;7.60;4.23;;;13.70;99.90;;;;;;5026853;28;20380;-73
2022/10/19 00:46:28;;;;;;;7.72;3.70;;;13.70;99.90;;;;;;5026359;28;20418;-73
2022/10/19 00:48:58;;;;;;;7.75;4.10;;;13.80;99.90;;;;;;5007362;28;20899;-73
2022/10/19 00:51:26;;;;;;;5.28;3.90;;;13.80;99.90;;;;;;5007216;28;20381;-73
2022/10/19 00:53:51;;;;;;;5.28;4.43;;;13.80;99.90;;;;;;5014586;28;20392;-73
2022/10/19 00:56:17;;;;;;;7.80;4.10;;;13.80;99.90;;;;;;5027007;28;20436;-73
2022/10/19 00:58:44;;;;;;;6.70;4.00;;;13.80;99.90;;;;;;5027077;28;20399;-73
2022/10/19 01:01:14;;;;;;;5.90;3.50;;;13.70;99.90;;;;;;5024918;28;20391;-73
2022/10/19 01:03:40;;;;;;;6.10;4.50;;;13.60;99.90;;;;;;5006784;28;20435;-73
2022/10/19 01:06:06;;;;;;;8.20;4.30;;;13.70;99.90;;;;;;5007088;28;20967;-73
2022/10/19 01:08:32;;;;;;;5.70;4.47;;;13.70;99.90;;;;;;5009181;28;20403;-73
2022/10/19 01:11:23;;;;;;;6.68;3.75;;;13.60;99.90;;;;;;5010647;28;20484;-73
2022/10/19 01:14:03;;;;;;;7.40;3.78;;;13.60;99.90;;;;;;4990824;28;20387;-73
2022/10/19 01:16:50;;;;;;;5.70;4.28;;;13.50;99.90;;;;;;4990852;28;20470;-73
2022/10/19 01:19:26;;;;;;;5.38;3.40;;;13.50;99.90;;;;;;4990952;28;20524;-73
2022/10/19 01:22:24;;;;;;;6.00;3.85;;;13.50;99.90;;;;;;5015108;28;20405;-73
2022/10/19 01:24:50;;;;;;;5.10;4.20;;;13.30;99.90;;;;;;5010155;28;20393;-73
2022/10/19 01:27:41;;;;;;;5.43;3.90;;;13.30;99.90;;;;;;5010261;28;20393;-73
2022/10/19 01:30:18;;;;;;;6.80;4.20;;;13.20;99.90;;;;;;5011807;28;20769;-73
2022/10/19 01:33:10;;;;;;;6.60;3.60;;;13.40;99.90;;;;;;5034104;28;20399;-73
2022/10/19 01:35:45;;;;;;;7.13;4.20;;;13.30;99.90;;;;;;5010226;28;20380;-73
2022/10/19 01:38:43;;;;;;;5.75;4.15;;;13.30;99.90;;;;;;5008935;28;20441;-73
2022/10/19 01:41:13;;;;;;;5.22;4.40;;;13.30;99.90;;;;;;5010303;28;20399;-73
2022/10/19 01:44:09;;;;;;;7.32;4.85;;;13.30;99.90;;;;;;5026790;28;20391;-73
2022/10/19 01:46:40;;;;;;;5.30;3.63;;;13.20;99.90;;;;;;5029388;28;20440;-73
2022/10/19 01:49:28;;;;;;;4.57;4.13;;;13.30;99.90;;;;;;5025491;28;20397;-73
2022/10/19 01:51:58;;;;;;;7.70;4.28;;;13.20;99.90;;;;;;5019716;28;20948;-73
2022/10/19 01:54:27;;;;;;;6.68;4.40;;;13.00;99.90;;;;;;5042928;28;20460;-72
2022/10/19 01:56:57;;;;;;;7.47;4.65;;;13.00;99.90;;;;;;5029648;28;20379;-73
2022/10/19 01:59:25;;;;;;;4.68;3.95;;;13.10;99.90;;;;;;5029604;27;20936;-73
2022/10/19 02:01:53;;;;;;;5.68;4.00;;;13.10;99.90;;;;;;5010141;28;21009;-73
2022/10/19 02:04:21;;;;;;;4.43;3.90;;;13.10;99.90;;;;;;5009538;28;20393;-73
2022/10/19 02:06:49;;;;;;;4.75;3.67;;;13.10;99.90;;;;;;5009660;28;20799;-73
2022/10/19 02:09:17;;;;;;;5.63;4.00;;;13.00;99.90;;;;;;5010727;28;20484;-73
2022/10/19 02:11:46;;;;;;;5.05;3.80;;;13.00;99.90;;;;;;5009937;28;20404;-73
2022/10/19 02:14:15;;;;;;;8.52;4.30;;;13.00;99.90;;;;;;5009256;28;20407;-73
2022/10/19 02:16:51;;;;;;;4.63;4.10;;;13.00;99.90;;;;;;5013512;28;20406;-72
2022/10/19 02:19:19;;;;;;;6.60;3.88;;;13.00;99.90;;;;;;5028864;28;20387;-72
2022/10/19 02:21:45;;;;;;;6.00;4.20;;;13.00;99.90;;;;;;5037369;28;20444;-72
2022/10/19 02:24:11;;;;;;;5.60;3.40;;;13.00;99.90;;;;;;5009248;28;20423;-73
2022/10/19 02:26:37;;;;;;;5.57;3.85;;;13.00;99.90;;;;;;5008057;28;20444;-73
2022/10/19 02:29:03;;;;;;;4.65;3.60;;;13.00;99.90;;;;;;5051196;28;20479;-72
2022/10/19 02:31:29;;;;;;;6.47;4.00;;;13.00;99.90;;;;;;5112833;28;20513;-73
2022/10/19 02:33:54;;;;;;;5.90;4.37;;;13.00;99.90;;;;;;5108979;28;20438;-73
2022/10/19 02:36:20;;;;;;;5.53;4.07;;;13.00;99.90;;;;;;5029018;28;20402;-73
2022/10/19 02:38:46;;;;;;;4.70;4.20;;;12.90;99.90;;;;;;5028942;28;20467;-72
2022/10/19 02:41:14;;;;;;;6.10;4.10;;;12.90;99.90;;;;;;5028903;28;20392;-73
2022/10/19 02:43:43;;;;;;;7.20;4.10;;;12.80;99.90;;;;;;5028604;28;20391;-73
2022/10/19 02:46:26;;;;;;;6.70;4.03;;;12.80;99.90;;;;;;5010561;28;20423;-73
2022/10/19 02:48:53;;;;;;;5.65;4.30;;;12.70;99.90;;;;;;5009548;28;20396;-73
2022/10/19 02:51:36;;;;;;;5.95;4.35;;;12.80;99.90;;;;;;5028832;28;20588;-72
2022/10/19 02:54:04;;;;;;;5.70;4.70;;;12.60;99.90;;;;;;5028527;28;20406;-73
2022/10/19 02:56:29;;;;;;;7.15;4.43;;;12.60;99.90;;;;;;5028816;28;20411;-73
2022/10/19 02:58:55;;;;;;;5.00;4.40;;;12.70;99.90;;;;;;5028246;28;20885;-72
2022/10/19 03:01:21;;;;;;;5.60;3.90;;;12.70;99.90;;;;;;5016990;28;20407;-72
2022/10/19 03:03:46;;;;;;;8.30;4.47;;;12.70;99.90;;;;;;5043635;27;20399;-72
2022/10/19 03:06:12;;;;;;;5.65;4.32;;;12.80;99.90;;;;;;5028335;28;20419;-73
2022/10/19 03:08:38;;;;;;;10.57;8.23;;;12.90;99.90;;;;;;5028505;28;20391;-72
2022/10/19 03:11:05;;;;;;;7.40;5.27;;;13.10;99.90;;;;;;5023285;28;20389;-72
2022/10/19 03:13:31;;;;;;;7.28;5.03;;;13.00;99.90;;;;;;5019370;28;20396;-72
2022/10/19 03:15:57;;;;;;;6.90;4.40;;;13.00;99.90;;;;;;5027493;28;20490;-73
2022/10/19 03:18:22;;;;;;;8.45;5.05;;;13.00;99.90;;;;;;5028467;28;20876;-73
2022/10/19 03:20:48;;;;;;;7.20;4.60;;;13.00;99.90;;;;;;5028363;28;20439;-72
2022/10/19 03:23:13;;;;;;;5.03;4.53;;;13.10;99.90;;;;;;5018470;28;20434;-72
2022/10/19 03:25:39;;;;;;;5.80;4.43;;;13.10;99.90;;;;;;5023285;28;20447;-72
2022/10/19 03:28:04;;;;;;;13.23;5.68;;;13.20;99.90;;;;;;5028160;28;20397;-72
2022/10/19 03:30:30;;;;;;;6.80;4.97;;;13.20;99.90;;;;;;5027317;28;20466;-73
2022/10/19 03:32:55;;;;;;;8.70;6.00;;;13.20;99.90;;;;;;5020225;28;20899;-73
2022/10/19 03:35:21;;;;;;;10.52;6.47;;;13.20;99.90;;;;;;5008792;28;20408;-72
2022/10/19 03:37:46;;;;;;;13.50;6.90;;;13.40;99.90;;;;;;5008727;28;20484;-73
2022/10/19 03:40:12;;;;;;;10.73;7.30;;;13.20;99.90;;;;;;5008541;28;20413;-73
2022/10/19 03:42:37;;;;;;;14.18;7.30;;;13.20;99.90;;;;;;5014005;28;20425;-73
2022/10/19 03:45:03;;;;;;;12.90;7.83;;;13.30;99.90;;;;;;5027646;28;20434;-73
2022/10/19 03:47:29;;;;;;;10.73;6.47;;;13.20;99.90;;;;;;5028210;28;20745;-73
2022/10/19 03:49:54;;;;;;;10.63;7.10;;;13.20;99.90;;;;;;5028109;28;20760;-73
2022/10/19 03:52:20;;;;;;;9.25;7.07;;;13.30;99.90;;;;;;5025072;28;20406;-72
2022/10/19 03:54:49;;;;;;;13.37;7.53;;;13.30;99.90;;;;;;5014480;28;20391;-73
2022/10/19 03:57:14;;;;;;;11.43;7.38;;;13.30;99.90;;;;;;5027942;28;20372;-72
2022/10/19 03:59:40;;;;;;;16.37;7.33;;;13.20;99.90;;;;;;5027919;28;20801;-72
2022/10/19 04:02:05;;;;;;;17.33;7.80;;;13.00;99.90;;;;;;5043296;28;20383;-73
2022/10/19 04:04:31;;;;;;;14.18;8.23;;;13.00;99.90;;;;;;5024056;28;20405;-73
2022/10/19 04:06:56;;;;;;;16.40;7.75;;;12.90;99.90;;;;;;5027782;28;20410;-73
2022/10/19 04:09:22;;;;;;;13.77;8.40;;;12.90;99.90;;;;;;5027856;28;20388;-73
2022/10/19 04:11:48;;;;;;;15.00;7.60;;;12.90;99.90;;;;;;5027853;28;20803;-72
2022/10/19 04:14:16;;;;;;;11.90;7.70;;;12.70;99.90;;;;;;5042811;28;20382;-73
2022/10/19 04:16:42;;;;;;;14.63;7.30;;;12.70;99.90;;;;;;5025250;28;20440;-73
2022/10/19 04:19:08;;;;;;;13.85;8.00;;;12.60;99.90;;;;;;5007918;28;20393;-73
2022/10/19 04:21:36;;;;;;;14.02;8.02;;;12.60;99.90;;;;;;5015059;28;20416;-73
2022/10/19 04:24:06;;;;;;;18.48;8.20;;;12.60;99.90;;;;;;5007599;28;20438;-73
2022/10/19 04:26:32;;;;;;;14.82;8.30;;;12.40;99.90;;;;;;5007743;28;20401;-73
2022/10/19 04:28:59;;;;;;;13.32;8.23;;;12.50;99.90;;;;;;5039726;28;20477;-72
2022/10/19 04:31:26;;;;;;;14.25;8.40;;;12.60;99.90;;;;;;5012034;28;20491;-73
2022/10/19 04:33:51;;;;;;;10.88;8.68;;;12.60;99.90;;;;;;5052467;28;20459;-73
2022/10/19 04:36:18;;;;;;;18.00;7.67;;;12.70;99.90;;;;;;5054636;28;20455;-72
2022/10/19 04:38:43;;;;;;;12.52;8.07;;;12.50;99.90;;;;;;5009838;28;20455;-72
2022/10/19 04:41:14;;;;;;;14.57;7.68;;;12.50;99.90;;;;;;5016078;28;20414;-72
2022/10/19 04:43:40;;;;;;;15.93;8.70;;;12.40;99.90;;;;;;5019119;28;20474;-72
2022/10/19 04:46:08;;;;;;;13.18;8.20;;;12.50;99.90;;;;;;5018559;28;20965;-72
2022/10/19 04:48:35;;;;;;;10.77;9.07;;;12.60;99.90;;;;;;5067279;28;20393;-72
2022/10/19 04:51:02;;;;;;;14.15;8.50;;;12.80;99.90;;;;;;5021434;28;20416;-72
2022/10/19 04:53:28;;;;;;;11.75;8.40;;;12.80;99.90;;;;;;5013976;28;20388;-72
2022/10/19 04:55:53;;;;;;;10.53;9.20;;;12.80;99.90;;;;;;5006319;28;20413;-72
2022/10/19 04:58:19;;;;;;;10.90;7.70;;;12.90;99.90;;;;;;5030338;28;20400;-72
2022/10/19 05:00:45;;;;;;;10.80;8.73;;;12.80;99.90;;;;;;5006031;28;20439;-72
2022/10/19 05:03:10;;;;;;;11.23;9.10;;;12.80;99.90;;;;;;5005859;28;20401;-72
2022/10/19 05:05:38;;;;;;;11.60;8.90;;;12.80;99.90;;;;;;5005802;28;20770;-72
2022/10/19 05:08:04;;;;;;;9.80;7.85;;;12.90;99.90;;;;;;5017959;28;20397;-72
2022/10/19 05:10:29;;;;;;;9.52;8.23;;;12.90;99.90;;;;;;5022561;28;20804;-72
2022/10/19 05:12:55;;;;;;;9.77;7.60;;;12.80;99.90;;;;;;5005718;28;20468;-72
2022/10/19 05:15:21;;;;;;;9.83;8.00;;;12.80;99.90;;;;;;5004804;28;20489;-72
2022/10/19 05:17:46;;;;;;;9.40;7.60;;;12.60;99.90;;;;;;5024688;28;21147;-72
2022/10/19 05:20:12;;;;;;;11.27;7.70;;;12.60;99.90;;;;;;5013363;28;20826;-72
2022/10/19 05:22:38;;;;;;;10.50;7.55;;;12.60;99.90;;;;;;5005411;28;20399;-72
2022/10/19 05:25:04;;;;;;;14.07;7.50;;;12.60;99.90;;;;;;5007144;28;20958;-72
2022/10/19 05:27:30;;;;;;;15.67;7.63;;;12.40;99.90;;;;;;5020711;28;20396;-72
2022/10/19 05:29:55;;;;;;;11.70;7.73;;;12.30;99.90;;;;;;5018780;28;20401;-73
2022/10/19 05:32:21;;;;;;;13.77;7.10;;;12.20;99.90;;;;;;5029957;28;20408;-72
2022/10/19 05:34:46;;;;;;;8.32;6.35;;;12.20;99.90;;;;;;5020285;28;20396;-72
2022/10/19 05:37:12;;;;;;;10.17;7.00;;;12.30;99.90;;;;;;5007323;28;20497;-72
2022/10/19 05:39:38;;;;;;;10.83;7.40;;;12.20;99.90;;;;;;5077736;28;20393;-72
2022/10/19 05:42:03;;;;;;;12.20;7.63;;;12.40;99.90;;;;;;5017631;28;20465;-72
2022/10/19 05:44:29;;;;;;;7.05;6.35;;;12.30;99.90;;;;;;5048889;28;20431;-72
2022/10/19 05:46:54;;;;;;;8.05;6.25;;;12.40;99.90;;;;;;5060564;28;20408;-72
2022/10/19 05:49:21;;;;;;;7.30;6.60;;;12.40;99.90;;;;;;5067095;28;20381;-72
2022/10/19 05:51:47;;;;;;;7.00;6.30;;;12.40;99.90;;;;;;5020227;28;20513;-73
2022/10/19 05:54:14;;;;;;;7.03;5.70;;;12.50;99.90;;;;;;5011987;28;20409;-73
2022/10/19 05:56:40;;;;;;;6.43;5.82;;;12.50;99.90;;;;;;5047606;28;20413;-73
2022/10/19 05:59:07;;;;;;;6.90;6.30;;;12.40;99.90;;;;;;5014824;28;20571;-73
2022/10/19 06:01:33;;;;;;;8.15;6.70;;;12.40;99.90;;;;;;5019822;28;20385;-73
2022/10/19 06:04:00;;;;;;;7.80;6.00;;;12.40;99.90;;;;;;5036079;28;20496;-72
2022/10/19 06:06:26;;;;;;;7.75;6.95;;;12.50;99.90;;;;;;5050767;28;21209;-73
2022/10/19 06:08:53;;;;;;;7.20;6.50;;;12.60;99.90;;;;;;5007219;28;20408;-73
2022/10/19 06:11:22;;;;;;;8.48;6.82;;;12.60;99.90;;;;;;5043477;28;20455;-73
2022/10/19 06:13:49;;;;;;;8.00;7.15;;;12.40;99.90;;;;;;5057921;28;20426;-73
2022/10/19 06:16:16;;;;;;;11.70;7.80;;;12.50;99.90;;;;;;5025295;28;20495;-73
2022/10/19 06:18:43;;;;;;;8.80;6.35;;;12.60;99.90;;;;;;5008697;28;20499;-73
2022/10/19 06:21:16;;;;;;;7.47;6.40;;;12.60;99.90;;;;;;5007462;28;20398;-73
2022/10/19 06:23:43;;;;;;;8.05;6.95;;;12.60;99.90;;;;;;5006341;28;20405;-73
2022/10/19 06:26:13;;;;;;;7.18;6.20;;;12.60;99.90;;;;;;5014783;28;20424;-73
2022/10/19 06:28:40;;;;;;;6.78;6.07;;;12.60;99.90;;;;;;5021415;28;20390;-73
2022/10/19 06:31:06;;;;;;;11.40;6.43;;;12.40;99.90;;;;;;5014240;28;20459;-73
2022/10/19 06:33:32;;;;;;;10.32;6.07;;;12.40;99.90;;;;;;5031533;28;20403;-74
2022/10/19 06:36:18;;;;;;;8.32;6.45;;;12.40;99.90;;;;;;5061196;28;20412;-74
2022/10/19 06:38:45;;;;;;;7.40;6.70;;;12.40;99.90;;;;;;5034022;28;20576;-73
2022/10/19 06:41:11;;;;;;;8.63;7.15;;;12.40;99.90;;;;;;5029917;28;20459;-74
2022/10/19 06:43:36;;;;;;;6.97;6.28;;;12.40;99.90;;;;;;5056992;28;20494;-73
2022/10/19 06:46:06;;;;;;;11.18;6.47;;;12.30;99.90;;;;;;5027608;28;20541;-73
2022/10/19 06:48:31;;;;;;;9.20;6.87;;;12.40;99.90;;;;;;5026886;28;20388;-74
2022/10/19 06:50:58;;;;;;;8.70;7.17;;;12.30;99.90;;;;;;5026044;28;20383;-74
2022/10/19 06:53:24;;;;;;;8.20;6.90;;;12.50;99.90;;;;;;5072720;28;20940;-74
2022/10/19 06:55:50;;;;;;;9.48;7.15;;;12.50;99.90;;;;;;5111428;28;20381;-74
2022/10/19 06:58:16;;;;;;;12.00;7.47;;;12.50;99.90;;;;;;5112698;28;20372;-74
2022/10/19 07:00:41;;;;;;;10.00;7.20;;;12.50;99.90;;;;;;5112255;28;20885;-74
2022/10/19 07:03:07;;;;;;;10.10;7.10;;;12.50;99.90;;;;;;5033238;28;20485;-74
2022/10/19 07:05:32;;;;;;;13.18;7.53;;;12.50;99.90;;;;;;5024623;28;20417;-74
2022/10/19 07:07:58;;;;;;;8.80;7.00;;;12.40;99.90;;;;;;5008761;28;20470;-74
2022/10/19 07:10:23;;;;;;;12.10;8.20;;;12.40;99.90;;;;;;5008890;28;20377;-74
2022/10/19 07:12:49;;;;;;;9.70;8.23;;;12.40;99.90;;;;;;5007534;28;20421;-73
2022/10/19 07:15:14;;;;;;;14.57;9.05;;;12.50;99.90;;;;;;5009162;28;20396;-74
2022/10/19 07:17:40;;;;;;;14.60;7.70;;;12.50;99.90;;;;;;5011483;28;20432;-74
2022/10/19 07:20:06;;;;;;;11.20;7.23;;;12.60;99.90;;;;;;5008882;28;20468;-74
2022/10/19 07:22:31;;;;;;;14.73;8.10;;;12.60;99.90;;;;;;5006778;28;20405;-74
2022/10/19 07:24:57;;;;;;;13.70;7.03;;;12.70;99.90;;;;;;5008521;28;20388;-74
2022/10/19 07:27:23;;;;;;;10.18;8.13;;;12.60;99.90;;;;;;5017807;28;20407;-74
2022/10/19 07:29:49;;;;;;;9.95;6.95;;;12.80;99.90;;;;;;5018666;28;20905;-74
2022/10/19 07:32:14;;;;;;;11.10;7.47;;;12.70;99.90;;;;;;5014654;28;20403;-74
2022/10/19 07:34:40;;;;;;;12.15;7.45;;;12.70;99.90;;;;;;5012140;28;20427;-74
2022/10/19 07:37:05;;;;;;;11.15;8.38;;;12.70;99.90;;;;;;5022450;28;21011;-74
2022/10/19 07:39:31;;;;;;;10.73;8.43;;;12.90;99.90;;;;;;5008672;28;20890;-73
2022/10/19 07:41:56;;;;;;;9.00;7.60;;;13.00;99.90;;;;;;5008379;28;20385;-74
2022/10/19 07:44:22;;;;;;;9.68;8.30;;;13.00;99.90;;;;;;5008044;28;20736;-74
2022/10/19 07:46:49;;;;;;;9.68;7.97;;;13.10;99.90;;;;;;5025561;28;20418;-74
2022/10/19 07:49:15;;;;;;;13.48;10.30;;;13.10;99.90;;;;;;5015676;28;20400;-74
2022/10/19 07:51:41;;;;;;;12.52;9.15;;;13.10;99.90;;;;;;5021304;28;20418;-74
2022/10/19 07:54:07;;;;;;;11.35;9.73;;;13.00;99.90;;;;;;5007259;28;20401;-73
2022/10/19 07:56:33;;;;;;;11.03;9.03;;;13.10;99.90;;;;;;5046869;28;20409;-74
2022/10/19 07:59:00;;;;;;;13.60;9.73;;;13.30;99.90;;;;;;5007978;28;20405;-74
2022/10/19 08:01:36;;;;;;;14.02;9.80;;;13.30;99.90;;;;;;5028555;28;20419;-73
2022/10/19 08:04:02;;;;;;;14.50;10.52;;;13.50;99.90;;;;;;5043556;28;20432;-73
2022/10/19 08:06:28;;;;;;;12.40;10.43;;;13.40;99.90;;;;;;5027805;28;20838;-74
2022/10/19 08:08:54;;;;;;;12.13;9.90;;;13.70;99.90;;;;;;5028170;28;20463;-73
2022/10/19 08:11:25;;;;;;;10.23;9.00;;;13.80;99.90;;;;;;5022436;28;20786;-73
2022/10/19 08:13:51;;;;;;;11.37;10.17;;;13.90;99.90;;;;;;5005849;28;20421;-73
2022/10/19 08:16:39;;;;;;;9.63;8.50;;;13.90;99.90;;;;;;5004452;28;20400;-74
2022/10/19 08:19:10;;;;;;;11.85;9.52;;;13.90;99.90;;;;;;5008681;28;20931;-74
2022/10/19 08:21:38;;;;;;;9.82;8.85;;;13.90;99.90;;;;;;5022549;27;20397;-73
2022/10/19 08:24:04;;;;;;;10.50;9.40;;;14.00;99.90;;;;;;5005861;28;20389;-73
2022/10/19 08:26:33;;;;;;;10.25;8.93;;;13.90;99.90;;;;;;5007305;28;20413;-74
2022/10/19 08:29:04;;;;;;;10.70;8.50;;;14.00;99.90;;;;;;5010276;28;20401;-73
2022/10/19 08:31:29;;;;;;;12.40;9.15;;;14.10;99.90;;;;;;5027585;28;20395;-73
2022/10/19 08:33:55;;;;;;;10.00;8.70;;;14.00;99.90;;;;;;5027206;28;20746;-73
2022/10/19 08:36:21;;;;;;;9.37;8.37;;;14.00;99.90;;;;;;5027383;28;20881;-73
2022/10/19 08:38:48;;;;;;;10.13;9.03;;;14.00;99.90;;;;;;5016353;28;21001;-73
2022/10/19 08:41:34;;;;;;;9.67;8.50;;;13.90;99.90;;;;;;5007609;28;20451;-73
2022/10/19 08:44:19;;;;;;;9.43;8.40;;;14.00;99.90;;;;;;5007261;28;20973;-73
2022/10/19 08:47:06;;;;;;;9.77;8.60;;;14.00;99.90;;;;;;5007402;28;20463;-73
2022/10/19 08:49:32;;;;;;;10.75;8.48;;;14.20;99.90;;;;;;5019916;28;20405;-73
2022/10/19 08:52:13;;;;;;;9.60;8.60;;;14.30;99.90;;;;;;5007405;28;20473;-73
2022/10/19 08:54:55;;;;;;;10.30;9.20;;;14.20;99.90;;;;;;5007344;28;20394;-73
2022/10/19 08:57:30;;;;;;;9.85;8.60;;;14.00;99.90;;;;;;5006057;28;20824;-73
2022/10/19 09:00:14;;;;;;;10.93;8.30;;;14.10;99.90;;;;;;5012485;28;20387;-73
2022/10/19 09:03:21;;;;;;;14.50;9.40;;;14.20;99.90;;;;;;5026828;28;20376;-73
2022/10/19 09:05:58;;;;;;;9.63;8.63;;;14.20;99.90;;;;;;4985656;28;20420;-73
2022/10/19 09:08:24;;;;;;;10.10;8.73;;;14.10;99.90;;;;;;5009130;28;20429;-73
2022/10/19 09:10:52;;;;;;;10.98;9.20;;;14.10;99.90;;;;;;5013604;28;20400;-73
2022/10/19 09:13:35;;;;;;;9.43;8.45;;;14.20;99.90;;;;;;5023618;28;20908;-73
2022/10/19 09:16:04;;;;;;;9.70;8.35;;;14.30;99.90;;;;;;5021412;28;20440;-73
2022/10/19 09:18:32;;;;;;;9.55;8.55;;;14.30;99.90;;;;;;5016863;28;20391;-73
2022/10/19 09:21:14;;;;;;;10.10;8.57;;;14.30;99.90;;;;;;5026130;28;20391;-73
2022/10/19 09:24:04;;;;;;;11.45;8.50;;;14.30;99.90;;;;;;5006906;28;20412;-73
2022/10/19 09:26:35;;;;;;;11.40;9.40;;;14.20;99.90;;;;;;5012183;28;20416;-73
2022/10/19 09:29:23;;;;;;;12.07;9.98;;;14.30;99.90;;;;;;5023881;28;20440;-71
2022/10/19 09:31:53;;;;;;;12.52;9.88;;;14.20;99.90;;;;;;5011079;28;20415;-71
2022/10/19 09:34:25;;;;;;;11.45;10.15;;;14.20;99.90;;;;;;5010270;28;20384;-71
2022/10/19 09:36:57;;;;;;;12.75;10.25;;;14.20;99.90;;;;;;5009194;28;20393;-71
2022/10/19 09:39:24;;;;;;;12.60;9.73;;;14.30;99.90;;;;;;5010473;28;20397;-71
2022/10/19 09:41:53;;;;;;;10.38;9.35;;;14.40;99.90;;;;;;5028143;28;20496;-71
2022/10/19 09:44:20;;;;;;;12.38;10.15;;;14.40;99.90;;;;;;5029792;28;20484;-71
2022/10/19 09:46:52;;;;;;;11.70;10.00;;;14.50;99.90;;;;;;5029997;28;20411;-73
2022/10/19 09:49:36;;;;;;;9.90;8.90;;;14.50;99.90;;;;;;5017148;28;20763;-71
2022/10/19 09:52:01;;;;;;;9.90;8.90;;;14.40;99.90;;;;;;5009002;28;20484;-73
2022/10/19 09:54:35;;;;;;;9.43;8.43;;;14.40;99.90;;;;;;5009726;28;20517;-71
2022/10/19 09:57:02;;;;;;;9.73;8.73;;;14.50;99.90;;;;;;5010082;28;20496;-71
2022/10/19 09:59:32;;;;;;;9.60;8.60;;;14.50;99.90;;;;;;5022733;28;20903;-73
2022/10/19 10:02:19;;;;;;;9.80;8.80;;;14.60;99.90;;;;;;5029780;28;20865;-71
2022/10/19 10:05:02;;;;;;;10.85;9.85;;;14.60;99.90;;;;;;5028835;28;20490;-72
2022/10/19 10:07:33;;;;;;;10.10;9.20;;;14.50;99.90;;;;;;4990339;28;20421;-71
2022/10/19 10:09:59;;;;;;;9.50;8.50;;;14.60;99.90;;;;;;4990457;28;20382;-72
2022/10/19 10:12:25;;;;;;;10.97;9.80;;;14.70;99.90;;;;;;4996549;28;20777;-72
2022/10/19 10:14:52;;;;;;;10.43;8.80;;;14.70;99.90;;;;;;5016256;28;20456;-72
2022/10/19 10:17:21;;;;;;;9.45;8.45;;;14.70;99.90;;;;;;5011876;28;20394;-72
2022/10/19 10:20:35;;;;;;;10.93;9.20;;;14.70;99.90;;;;;;5005696;28;20468;-72
2022/10/19 10:23:03;;;;;;;9.60;8.32;;;14.70;99.90;;;;;;5009364;28;20412;-71
2022/10/19 10:25:32;;;;;;;11.65;9.00;;;14.70;99.90;;;;;;5052705;28;20400;-71
2022/10/19 10:28:19;;;;;;;11.03;9.93;;;14.70;99.90;;;;;;5112797;28;20849;-71
2022/10/19 10:30:47;;;;;;;10.75;9.65;;;14.70;99.90;;;;;;5068250;28;20767;-71
2022/10/19 10:33:18;;;;;;;9.55;8.55;;;14.80;99.90;;;;;;5008669;28;20417;-72
2022/10/19 10:35:52;;;;;;;10.45;9.32;;;14.90;99.90;;;;;;5022127;28;20752;-72
2022/10/19 10:38:25;;;;;;;12.02;10.05;;;14.90;99.90;;;;;;5012299;28;20909;-71
2022/10/19 10:40:55;;;;;;;10.80;9.52;;;15.00;99.90;;;;;;5024426;28;20398;-72
2022/10/19 10:43:28;;;;;;;10.67;9.57;;;14.80;99.90;;;;;;5028839;28;20468;-72
2022/10/19 10:45:58;;;;;;;11.02;9.82;;;14.80;99.90;;;;;;5028572;28;20464;-72
2022/10/19 10:48:34;;;;;;;13.57;10.65;;;14.90;99.90;;;;;;5022943;28;20398;-71
2022/10/19 10:51:01;;;;;;;13.02;10.45;;;14.80;99.90;;;;;;5008351;28;20424;-72
2022/10/19 10:53:37;;;;;;;11.95;10.73;;;14.90;99.90;;;;;;5013738;28;20726;-72
2022/10/19 10:56:04;;;;;;;11.52;10.20;;;14.90;99.90;;;;;;5016444;28;20399;-72
2022/10/19 10:58:42;;;;;;;11.60;10.37;;;14.80;99.90;;;;;;5015568;28;20809;-72
2022/10/19 11:01:18;;;;;;;13.10;10.32;;;14.90;99.90;;;;;;5022211;28;20474;-72
2022/10/19 11:03:51;;;;;;;12.50;11.20;;;15.00;99.90;;;;;;5028535;28;20411;-72
2022/10/19 11:06:21;;;;;;;11.95;10.68;;;15.00;99.90;;;;;;5010646;28;20518;-72
2022/10/19 11:09:07;;;;;;;11.70;10.50;;;14.90;99.90;;;;;;5020166;28;20494;-72
2022/10/19 11:11:43;;;;;;;13.00;11.60;;;14.90;99.90;;;;;;5009715;28;20399;-72
2022/10/19 11:14:42;;;;;;;13.40;11.32;;;14.90;99.90;;;;;;5013148;28;20584;-72
2022/10/19 11:17:19;;;;;;;12.43;11.13;;;14.80;99.90;;;;;;5013797;28;20818;-72
2022/10/19 11:19:45;;;;;;;13.48;10.60;;;14.90;99.90;;;;;;5022351;28;20434;-72
2022/10/19 11:22:37;;;;;;;12.10;10.50;;;14.80;99.90;;;;;;5017470;28;20882;-72
2022/10/19 11:25:24;;;;;;;12.43;11.10;;;14.90;99.90;;;;;;5008636;28;20894;-72
2022/10/19 11:28:09;;;;;;;12.07;10.85;;;14.90;99.90;;;;;;4995233;28;20876;-72
2022/10/19 11:30:46;;;;;;;14.65;10.40;;;15.10;99.90;;;;;;5028041;28;20399;-72
2022/10/19 11:33:35;;;;;;;13.87;11.53;;;15.00;99.90;;;;;;5028052;28;20467;-72
2022/10/19 11:36:10;;;;;;;14.20;12.20;;;15.00;99.90;;;;;;5028143;28;20383;-72
2022/10/19 11:39:00;;;;;;;12.70;11.30;;;15.00;99.90;;;;;;5018167;28;20409;-72
2022/10/19 11:41:51;;;;;;;14.30;11.83;;;14.90;99.90;;;;;;5008406;28;20493;-72
2022/10/19 11:44:34;;;;;;;13.60;12.20;;;15.00;99.90;;;;;;5022793;28;20445;-72
2022/10/19 11:47:05;;;;;;;15.05;12.20;;;15.10;99.90;;;;;;5015471;28;20913;-72
2022/10/19 11:49:59;;;;;;;12.80;11.50;;;15.20;99.90;;;;;;4997149;28;20408;-72
2022/10/19 11:52:45;;;;;;;13.27;11.98;;;15.10;99.90;;;;;;5008548;28;20424;-72
2022/10/19 11:56:02;;;;;;;13.40;12.00;;;14.90;99.90;;;;;;5027857;28;20885;-71
2022/10/19 11:58:46;;;;;;;13.90;12.40;;;15.00;99.90;;;;;;4966664;28;20501;-72
2022/10/19 12:01:40;;;;;;;13.10;11.60;;;15.10;99.90;;;;;;4988572;28;20482;-72
2022/10/19 12:04:33;;;;;;;11.25;10.15;;;15.10;99.90;;;;;;4980189;28;20456;-72
2022/10/19 12:07:17;;;;;;;12.97;11.57;;;15.20;99.90;;;;;;4988349;28;20417;-72
2022/10/19 12:10:29;;;;;;;12.50;11.20;;;15.20;99.90;;;;;;5005646;28;20406;-72
2022/10/19 12:13:00;;;;;;;14.10;11.68;;;15.20;99.90;;;;;;4966916;28;20495;-71
2022/10/19 12:15:34;;;;;;;12.88;11.32;;;15.20;99.90;;;;;;5013002;28;20399;-72
2022/10/19 12:18:31;;;;;;;14.55;12.02;;;15.10;99.90;;;;;;4994531;28;20438;-72
2022/10/19 12:20:59;;;;;;;12.40;11.20;;;15.20;99.90;;;;;;5002598;28;20507;-72
2022/10/19 12:23:36;;;;;;;14.55;11.45;;;15.00;99.90;;;;;;5007396;28;20454;-72
2022/10/19 12:26:07;;;;;;;13.98;12.48;;;14.90;99.90;;;;;;5004683;28;20419;-72
2022/10/19 12:28:37;;;;;;;14.38;11.50;;;14.90;99.90;;;;;;5011305;28;20407;-72
2022/10/19 12:31:04;;;;;;;13.95;12.48;;;14.90;99.90;;;;;;5005837;28;20470;-71
2022/10/19 12:33:30;;;;;;;16.95;13.60;;;15.00;99.90;;;;;;5010908;28;20438;-72
2022/10/19 12:36:07;;;;;;;14.83;12.37;;;15.00;99.90;;;;;;5007684;28;20416;-72
2022/10/19 12:38:45;;;;;;;14.83;13.00;;;15.00;99.90;;;;;;5007279;28;20918;-72
2022/10/19 12:41:33;;;;;;;15.00;13.40;;;15.10;99.90;;;;;;5006310;28;20381;-72
2022/10/19 12:44:14;;;;;;;16.05;13.90;;;15.10;99.90;;;;;;4997306;28;20462;-71
2022/10/19 12:46:43;;;;;;;15.57;12.50;;;15.10;99.90;;;;;;5005027;28;20528;-71
2022/10/19 12:49:28;;;;;;;14.75;12.98;;;15.20;99.90;;;;;;5006856;28;20402;-71
2022/10/19 12:51:55;;;;;;;16.77;13.35;;;15.20;99.90;;;;;;5004942;28;20901;-71
2022/10/19 12:54:25;;;;;;;16.67;13.43;;;15.20;99.90;;;;;;5005245;28;20397;-72
2022/10/19 12:56:54;;;;;;;15.55;13.85;;;15.20;99.90;;;;;;5006540;28;20405;-72
2022/10/19 12:59:27;;;;;;;15.83;14.13;;;15.20;99.90;;;;;;5007226;28;20436;-72
2022/10/19 13:01:55;;;;;;;16.03;14.33;;;15.20;99.90;;;;;;5007166;28;20484;-72